sensor_id;sensor_type;location;lat;lon;timestamp;P1;durP1;ratioP1;P2;durP2;ratioP2
38529;SDS011;24301;54.332;48.386;2023-07-22T00:01:01;3.35;;;2.58;;
38529;SDS011;24301;54.332;48.386;2023-07-22T00:03:27;2.72;;;2.15;;
38529;SDS011;24301;54.332;48.386;2023-07-22T00:08:33;3.70;;;2.45;;
38529;SDS011;24301;54.332;48.386;2023-07-22T00:10:59;4.05;;;2.30;;
38529;SDS011;24301;54.332;48.386;2023-07-22T00:13:25;2.90;;;2.22;;
38529;SDS011;24301;54.332;48.386;2023-07-22T00:15:54;3.78;;;2.90;;
38529;SDS011;24301;54.332;48.386;2023-07-22T00:18:21;2.95;;;2.63;;
38529;SDS011;24301;54.332;48.386;2023-07-22T00:20:47;4.30;;;2.60;;
38529;SDS011;24301;54.332;48.386;2023-07-22T00:23:13;3.08;;;2.67;;
38529;SDS011;24301;54.332;48.386;2023-07-22T00:25:40;7.13;;;2.80;;
38529;SDS011;24301;54.332;48.386;2023-07-22T00:28:07;5.18;;;2.95;;
38529;SDS011;24301;54.332;48.386;2023-07-22T00:30:32;3.72;;;2.80;;
38529;SDS011;24301;54.332;48.386;2023-07-22T00:32:59;5.45;;;2.88;;
38529;SDS011;24301;54.332;48.386;2023-07-22T00:35:25;3.60;;;2.50;;
38529;SDS011;24301;54.332;48.386;2023-07-22T00:37:51;4.90;;;2.60;;
38529;SDS011;24301;54.332;48.386;2023-07-22T00:40:17;5.28;;;2.75;;
38529;SDS011;24301;54.332;48.386;2023-07-22T00:42:44;2.78;;;2.50;;
38529;SDS011;24301;54.332;48.386;2023-07-22T00:45:10;4.40;;;2.78;;
38529;SDS011;24301;54.332;48.386;2023-07-22T00:47:36;4.22;;;2.90;;
38529;SDS011;24301;54.332;48.386;2023-07-22T00:50:02;3.72;;;2.70;;
38529;SDS011;24301;54.332;48.386;2023-07-22T00:52:31;3.55;;;2.55;;
38529;SDS011;24301;54.332;48.386;2023-07-22T00:54:58;5.75;;;3.17;;
38529;SDS011;24301;54.332;48.386;2023-07-22T00:57:27;5.82;;;3.50;;
38529;SDS011;24301;54.332;48.386;2023-07-22T00:59:54;5.25;;;3.90;;
38529;SDS011;24301;54.332;48.386;2023-07-22T01:02:22;5.32;;;3.28;;
38529;SDS011;24301;54.332;48.386;2023-07-22T01:04:49;4.85;;;3.72;;
38529;SDS011;24301;54.332;48.386;2023-07-22T01:07:17;8.93;;;4.07;;
38529;SDS011;24301;54.332;48.386;2023-07-22T01:09:43;3.75;;;3.28;;
38529;SDS011;24301;54.332;48.386;2023-07-22T01:12:11;4.28;;;2.92;;
38529;SDS011;24301;54.332;48.386;2023-07-22T01:14:37;5.20;;;2.72;;
38529;SDS011;24301;54.332;48.386;2023-07-22T01:17:04;3.45;;;2.92;;
38529;SDS011;24301;54.332;48.386;2023-07-22T01:19:32;3.28;;;2.85;;
38529;SDS011;24301;54.332;48.386;2023-07-22T01:21:59;4.63;;;2.88;;
38529;SDS011;24301;54.332;48.386;2023-07-22T01:24:27;3.67;;;2.85;;
38529;SDS011;24301;54.332;48.386;2023-07-22T01:26:53;4.05;;;3.00;;
38529;SDS011;24301;54.332;48.386;2023-07-22T01:29:21;3.80;;;2.85;;
38529;SDS011;24301;54.332;48.386;2023-07-22T01:31:48;3.22;;;2.50;;
38529;SDS011;24301;54.332;48.386;2023-07-22T01:34:17;6.38;;;3.13;;
38529;SDS011;24301;54.332;48.386;2023-07-22T01:36:43;4.07;;;3.05;;
38529;SDS011;24301;54.332;48.386;2023-07-22T01:39:10;4.32;;;3.13;;
38529;SDS011;24301;54.332;48.386;2023-07-22T01:41:37;3.97;;;2.85;;
38529;SDS011;24301;54.332;48.386;2023-07-22T01:44:04;4.70;;;3.13;;
38529;SDS011;24301;54.332;48.386;2023-07-22T01:46:31;4.88;;;3.08;;
38529;SDS011;24301;54.332;48.386;2023-07-22T01:48:57;3.35;;;2.92;;
38529;SDS011;24301;54.332;48.386;2023-07-22T01:51:23;3.85;;;3.20;;
38529;SDS011;24301;54.332;48.386;2023-07-22T01:53:49;3.58;;;3.05;;
38529;SDS011;24301;54.332;48.386;2023-07-22T01:56:16;2.88;;;2.63;;
38529;SDS011;24301;54.332;48.386;2023-07-22T01:58:42;4.45;;;2.88;;
38529;SDS011;24301;54.332;48.386;2023-07-22T02:01:08;3.58;;;2.55;;
38529;SDS011;24301;54.332;48.386;2023-07-22T02:03:34;3.60;;;3.03;;
38529;SDS011;24301;54.332;48.386;2023-07-22T02:06:03;2.58;;;2.38;;
38529;SDS011;24301;54.332;48.386;2023-07-22T02:08:29;3.70;;;2.90;;
38529;SDS011;24301;54.332;48.386;2023-07-22T02:11:04;6.07;;;3.60;;
38529;SDS011;24301;54.332;48.386;2023-07-22T02:13:32;3.88;;;3.20;;
38529;SDS011;24301;54.332;48.386;2023-07-22T02:15:59;6.45;;;3.30;;
38529;SDS011;24301;54.332;48.386;2023-07-22T02:18:29;3.42;;;3.03;;
38529;SDS011;24301;54.332;48.386;2023-07-22T02:20:56;4.22;;;3.03;;
38529;SDS011;24301;54.332;48.386;2023-07-22T02:23:22;5.88;;;3.10;;
38529;SDS011;24301;54.332;48.386;2023-07-22T02:25:52;4.20;;;3.13;;
38529;SDS011;24301;54.332;48.386;2023-07-22T02:28:19;4.32;;;3.47;;
38529;SDS011;24301;54.332;48.386;2023-07-22T02:30:47;3.72;;;3.33;;
38529;SDS011;24301;54.332;48.386;2023-07-22T02:33:14;5.57;;;3.72;;
38529;SDS011;24301;54.332;48.386;2023-07-22T02:35:40;4.13;;;3.47;;
38529;SDS011;24301;54.332;48.386;2023-07-22T02:38:07;3.95;;;3.25;;
38529;SDS011;24301;54.332;48.386;2023-07-22T02:40:36;5.53;;;3.58;;
38529;SDS011;24301;54.332;48.386;2023-07-22T02:43:03;5.63;;;3.70;;
38529;SDS011;24301;54.332;48.386;2023-07-22T02:45:38;3.80;;;3.40;;
38529;SDS011;24301;54.332;48.386;2023-07-22T02:48:04;4.40;;;3.95;;
38529;SDS011;24301;54.332;48.386;2023-07-22T02:50:30;7.28;;;4.07;;
38529;SDS011;24301;54.332;48.386;2023-07-22T02:52:56;5.30;;;3.95;;
38529;SDS011;24301;54.332;48.386;2023-07-22T02:55:22;5.15;;;4.30;;
38529;SDS011;24301;54.332;48.386;2023-07-22T02:57:48;4.35;;;3.85;;
38529;SDS011;24301;54.332;48.386;2023-07-22T03:00:15;5.05;;;4.35;;
38529;SDS011;24301;54.332;48.386;2023-07-22T03:02:49;4.10;;;3.72;;
38529;SDS011;24301;54.332;48.386;2023-07-22T03:05:17;4.35;;;3.70;;
38529;SDS011;24301;54.332;48.386;2023-07-22T03:07:44;4.32;;;3.83;;
38529;SDS011;24301;54.332;48.386;2023-07-22T03:10:10;5.53;;;3.88;;
38529;SDS011;24301;54.332;48.386;2023-07-22T03:12:36;4.07;;;3.67;;
38529;SDS011;24301;54.332;48.386;2023-07-22T03:15:02;4.70;;;3.47;;
38529;SDS011;24301;54.332;48.386;2023-07-22T03:17:35;6.05;;;4.15;;
38529;SDS011;24301;54.332;48.386;2023-07-22T03:20:02;4.82;;;4.28;;
38529;SDS011;24301;54.332;48.386;2023-07-22T03:22:47;7.03;;;4.78;;
38529;SDS011;24301;54.332;48.386;2023-07-22T03:25:14;5.60;;;4.95;;
38529;SDS011;24301;54.332;48.386;2023-07-22T03:27:42;6.53;;;5.88;;
38529;SDS011;24301;54.332;48.386;2023-07-22T03:30:11;8.02;;;5.20;;
38529;SDS011;24301;54.332;48.386;2023-07-22T03:32:41;6.60;;;4.68;;
38529;SDS011;24301;54.332;48.386;2023-07-22T03:35:08;5.32;;;4.38;;
38529;SDS011;24301;54.332;48.386;2023-07-22T03:37:36;5.20;;;4.03;;
38529;SDS011;24301;54.332;48.386;2023-07-22T03:40:02;5.90;;;4.43;;
38529;SDS011;24301;54.332;48.386;2023-07-22T03:42:33;4.35;;;3.78;;
38529;SDS011;24301;54.332;48.386;2023-07-22T03:44:59;6.05;;;3.75;;
38529;SDS011;24301;54.332;48.386;2023-07-22T03:47:25;4.72;;;3.75;;
38529;SDS011;24301;54.332;48.386;2023-07-22T03:49:51;7.70;;;4.53;;
38529;SDS011;24301;54.332;48.386;2023-07-22T03:52:18;6.28;;;4.00;;
38529;SDS011;24301;54.332;48.386;2023-07-22T03:54:44;4.47;;;3.67;;
38529;SDS011;24301;54.332;48.386;2023-07-22T03:57:10;6.07;;;4.72;;
38529;SDS011;24301;54.332;48.386;2023-07-22T03:59:36;6.18;;;5.40;;
38529;SDS011;24301;54.332;48.386;2023-07-22T04:02:02;6.10;;;3.92;;
38529;SDS011;24301;54.332;48.386;2023-07-22T04:04:28;6.82;;;5.03;;
38529;SDS011;24301;54.332;48.386;2023-07-22T04:06:54;6.47;;;4.63;;
38529;SDS011;24301;54.332;48.386;2023-07-22T04:09:20;6.68;;;4.40;;
38529;SDS011;24301;54.332;48.386;2023-07-22T04:11:46;7.63;;;4.38;;
38529;SDS011;24301;54.332;48.386;2023-07-22T04:14:14;6.00;;;4.05;;
38529;SDS011;24301;54.332;48.386;2023-07-22T04:16:41;6.50;;;3.75;;
38529;SDS011;24301;54.332;48.386;2023-07-22T04:19:06;4.55;;;3.40;;
38529;SDS011;24301;54.332;48.386;2023-07-22T04:21:32;7.90;;;4.40;;
38529;SDS011;24301;54.332;48.386;2023-07-22T04:23:58;3.63;;;3.30;;
38529;SDS011;24301;54.332;48.386;2023-07-22T04:26:24;4.03;;;3.60;;
38529;SDS011;24301;54.332;48.386;2023-07-22T04:28:50;4.90;;;4.10;;
38529;SDS011;24301;54.332;48.386;2023-07-22T04:31:15;3.67;;;2.97;;
38529;SDS011;24301;54.332;48.386;2023-07-22T04:33:41;5.30;;;2.95;;
38529;SDS011;24301;54.332;48.386;2023-07-22T04:36:07;3.58;;;3.28;;
38529;SDS011;24301;54.332;48.386;2023-07-22T04:38:33;6.32;;;3.10;;
38529;SDS011;24301;54.332;48.386;2023-07-22T04:40:59;4.15;;;3.40;;
38529;SDS011;24301;54.332;48.386;2023-07-22T04:43:27;4.60;;;2.65;;
38529;SDS011;24301;54.332;48.386;2023-07-22T04:45:53;3.83;;;2.88;;
38529;SDS011;24301;54.332;48.386;2023-07-22T04:48:20;4.53;;;3.08;;
38529;SDS011;24301;54.332;48.386;2023-07-22T04:50:47;3.67;;;2.30;;
38529;SDS011;24301;54.332;48.386;2023-07-22T04:53:13;4.22;;;2.28;;
38529;SDS011;24301;54.332;48.386;2023-07-22T04:55:39;3.50;;;2.70;;
38529;SDS011;24301;54.332;48.386;2023-07-22T04:58:05;4.32;;;3.10;;
38529;SDS011;24301;54.332;48.386;2023-07-22T05:00:38;3.05;;;2.75;;
38529;SDS011;24301;54.332;48.386;2023-07-22T05:03:04;4.45;;;3.13;;
38529;SDS011;24301;54.332;48.386;2023-07-22T05:05:31;3.83;;;2.70;;
38529;SDS011;24301;54.332;48.386;2023-07-22T05:07:57;11.90;;;3.10;;
38529;SDS011;24301;54.332;48.386;2023-07-22T05:10:23;3.80;;;2.47;;
38529;SDS011;24301;54.332;48.386;2023-07-22T05:12:54;6.80;;;2.13;;
38529;SDS011;24301;54.332;48.386;2023-07-22T05:15:22;5.55;;;2.33;;
38529;SDS011;24301;54.332;48.386;2023-07-22T05:17:48;6.53;;;3.53;;
38529;SDS011;24301;54.332;48.386;2023-07-22T05:20:14;3.60;;;2.70;;
38529;SDS011;24301;54.332;48.386;2023-07-22T05:22:40;3.47;;;2.60;;
38529;SDS011;24301;54.332;48.386;2023-07-22T05:25:06;3.22;;;1.80;;
38529;SDS011;24301;54.332;48.386;2023-07-22T05:27:33;2.83;;;2.10;;
38529;SDS011;24301;54.332;48.386;2023-07-22T05:29:59;5.00;;;2.20;;
38529;SDS011;24301;54.332;48.386;2023-07-22T05:32:27;2.45;;;2.05;;
38529;SDS011;24301;54.332;48.386;2023-07-22T05:34:53;3.50;;;2.60;;
38529;SDS011;24301;54.332;48.386;2023-07-22T05:37:19;2.45;;;2.03;;
38529;SDS011;24301;54.332;48.386;2023-07-22T05:39:45;2.88;;;1.80;;
38529;SDS011;24301;54.332;48.386;2023-07-22T05:42:11;3.33;;;2.15;;
38529;SDS011;24301;54.332;48.386;2023-07-22T05:44:40;3.65;;;2.60;;
38529;SDS011;24301;54.332;48.386;2023-07-22T05:47:08;10.80;;;4.57;;
38529;SDS011;24301;54.332;48.386;2023-07-22T05:49:34;3.97;;;2.88;;
38529;SDS011;24301;54.332;48.386;2023-07-22T05:52:00;2.90;;;1.63;;
38529;SDS011;24301;54.332;48.386;2023-07-22T05:54:27;3.22;;;1.92;;
38529;SDS011;24301;54.332;48.386;2023-07-22T05:56:52;3.08;;;1.55;;
38529;SDS011;24301;54.332;48.386;2023-07-22T05:59:18;4.05;;;1.55;;
38529;SDS011;24301;54.332;48.386;2023-07-22T06:01:44;2.22;;;1.33;;
38529;SDS011;24301;54.332;48.386;2023-07-22T06:04:10;2.67;;;1.30;;
38529;SDS011;24301;54.332;48.386;2023-07-22T06:06:36;2.70;;;1.40;;
38529;SDS011;24301;54.332;48.386;2023-07-22T06:09:01;2.95;;;1.50;;
38529;SDS011;24301;54.332;48.386;2023-07-22T06:11:27;5.18;;;1.98;;
38529;SDS011;24301;54.332;48.386;2023-07-22T06:13:54;2.03;;;1.63;;
38529;SDS011;24301;54.332;48.386;2023-07-22T06:16:19;2.53;;;1.58;;
38529;SDS011;24301;54.332;48.386;2023-07-22T06:18:45;4.35;;;2.08;;
38529;SDS011;24301;54.332;48.386;2023-07-22T06:21:11;3.17;;;1.70;;
38529;SDS011;24301;54.332;48.386;2023-07-22T06:23:37;4.90;;;3.05;;
38529;SDS011;24301;54.332;48.386;2023-07-22T06:26:03;4.45;;;2.25;;
38529;SDS011;24301;54.332;48.386;2023-07-22T06:28:28;5.35;;;2.33;;
38529;SDS011;24301;54.332;48.386;2023-07-22T06:30:54;3.00;;;1.83;;
38529;SDS011;24301;54.332;48.386;2023-07-22T06:33:20;2.95;;;1.45;;
38529;SDS011;24301;54.332;48.386;2023-07-22T06:35:46;3.65;;;2.55;;
38529;SDS011;24301;54.332;48.386;2023-07-22T06:38:11;1.77;;;1.67;;
38529;SDS011;24301;54.332;48.386;2023-07-22T06:40:37;2.75;;;1.75;;
38529;SDS011;24301;54.332;48.386;2023-07-22T06:43:03;2.30;;;1.65;;
38529;SDS011;24301;54.332;48.386;2023-07-22T06:45:29;5.30;;;1.70;;
38529;SDS011;24301;54.332;48.386;2023-07-22T06:47:54;2.85;;;1.40;;
38529;SDS011;24301;54.332;48.386;2023-07-22T06:50:20;2.33;;;1.48;;
38529;SDS011;24301;54.332;48.386;2023-07-22T06:52:46;7.05;;;2.20;;
38529;SDS011;24301;54.332;48.386;2023-07-22T06:55:12;3.15;;;1.77;;
38529;SDS011;24301;54.332;48.386;2023-07-22T06:57:40;3.67;;;1.90;;
38529;SDS011;24301;54.332;48.386;2023-07-22T07:00:06;3.00;;;1.50;;
38529;SDS011;24301;54.332;48.386;2023-07-22T07:02:35;2.78;;;1.52;;
38529;SDS011;24301;54.332;48.386;2023-07-22T07:05:01;2.75;;;1.63;;
38529;SDS011;24301;54.332;48.386;2023-07-22T07:07:29;4.65;;;2.20;;
38529;SDS011;24301;54.332;48.386;2023-07-22T07:09:54;2.03;;;1.60;;
38529;SDS011;24301;54.332;48.386;2023-07-22T07:12:20;2.47;;;1.40;;
38529;SDS011;24301;54.332;48.386;2023-07-22T07:14:49;3.42;;;1.75;;
38529;SDS011;24301;54.332;48.386;2023-07-22T07:17:17;3.38;;;1.83;;
38529;SDS011;24301;54.332;48.386;2023-07-22T07:19:43;3.83;;;2.38;;
38529;SDS011;24301;54.332;48.386;2023-07-22T07:22:09;2.15;;;1.55;;
38529;SDS011;24301;54.332;48.386;2023-07-22T07:24:35;2.50;;;1.58;;
38529;SDS011;24301;54.332;48.386;2023-07-22T07:27:01;2.50;;;1.48;;
38529;SDS011;24301;54.332;48.386;2023-07-22T07:29:26;3.88;;;2.10;;
38529;SDS011;24301;54.332;48.386;2023-07-22T07:31:52;2.90;;;2.20;;
38529;SDS011;24301;54.332;48.386;2023-07-22T07:34:20;4.25;;;2.30;;
38529;SDS011;24301;54.332;48.386;2023-07-22T07:36:46;5.50;;;2.42;;
38529;SDS011;24301;54.332;48.386;2023-07-22T07:39:14;5.45;;;2.10;;
38529;SDS011;24301;54.332;48.386;2023-07-22T07:41:39;3.60;;;1.95;;
38529;SDS011;24301;54.332;48.386;2023-07-22T07:44:05;2.33;;;1.77;;
38529;SDS011;24301;54.332;48.386;2023-07-22T07:46:31;2.75;;;1.85;;
38529;SDS011;24301;54.332;48.386;2023-07-22T07:48:58;2.90;;;1.83;;
38529;SDS011;24301;54.332;48.386;2023-07-22T07:51:26;2.60;;;1.90;;
38529;SDS011;24301;54.332;48.386;2023-07-22T07:53:56;3.63;;;1.60;;
38529;SDS011;24301;54.332;48.386;2023-07-22T07:56:24;5.18;;;2.13;;
38529;SDS011;24301;54.332;48.386;2023-07-22T07:58:50;3.90;;;2.00;;
38529;SDS011;24301;54.332;48.386;2023-07-22T08:01:20;4.55;;;2.30;;
38529;SDS011;24301;54.332;48.386;2023-07-22T08:03:46;3.30;;;2.00;;
38529;SDS011;24301;54.332;48.386;2023-07-22T08:06:12;2.40;;;1.70;;
38529;SDS011;24301;54.332;48.386;2023-07-22T08:08:39;5.85;;;1.83;;
38529;SDS011;24301;54.332;48.386;2023-07-22T08:11:12;5.60;;;1.80;;
38529;SDS011;24301;54.332;48.386;2023-07-22T08:13:39;2.85;;;1.80;;
38529;SDS011;24301;54.332;48.386;2023-07-22T08:16:09;2.78;;;1.88;;
38529;SDS011;24301;54.332;48.386;2023-07-22T08:18:36;4.22;;;2.75;;
38529;SDS011;24301;54.332;48.386;2023-07-22T08:21:03;3.63;;;1.63;;
38529;SDS011;24301;54.332;48.386;2023-07-22T08:23:31;3.50;;;1.55;;
38529;SDS011;24301;54.332;48.386;2023-07-22T08:25:57;3.05;;;1.88;;
38529;SDS011;24301;54.332;48.386;2023-07-22T08:28:23;5.07;;;2.13;;
38529;SDS011;24301;54.332;48.386;2023-07-22T08:30:49;4.43;;;1.73;;
38529;SDS011;24301;54.332;48.386;2023-07-22T08:33:15;4.55;;;1.70;;
38529;SDS011;24301;54.332;48.386;2023-07-22T08:35:46;1.92;;;1.35;;
38529;SDS011;24301;54.332;48.386;2023-07-22T08:38:13;2.85;;;1.38;;
38529;SDS011;24301;54.332;48.386;2023-07-22T08:40:39;2.03;;;1.83;;
38529;SDS011;24301;54.332;48.386;2023-07-22T08:43:07;3.03;;;1.83;;
38529;SDS011;24301;54.332;48.386;2023-07-22T08:45:36;3.33;;;1.67;;
38529;SDS011;24301;54.332;48.386;2023-07-22T08:48:05;3.03;;;2.10;;
38529;SDS011;24301;54.332;48.386;2023-07-22T08:53:31;2.80;;;1.95;;
38529;SDS011;24301;54.332;48.386;2023-07-22T08:56:00;3.13;;;1.90;;
38529;SDS011;24301;54.332;48.386;2023-07-22T08:58:26;3.50;;;1.60;;
38529;SDS011;24301;54.332;48.386;2023-07-22T09:00:53;3.00;;;1.70;;
38529;SDS011;24301;54.332;48.386;2023-07-22T09:03:19;3.78;;;2.00;;
38529;SDS011;24301;54.332;48.386;2023-07-22T09:05:45;3.20;;;1.60;;
38529;SDS011;24301;54.332;48.386;2023-07-22T09:08:13;3.10;;;1.50;;
38529;SDS011;24301;54.332;48.386;2023-07-22T09:10:38;2.45;;;1.70;;
38529;SDS011;24301;54.332;48.386;2023-07-22T09:13:05;4.35;;;1.52;;
38529;SDS011;24301;54.332;48.386;2023-07-22T09:15:32;1.80;;;1.38;;
38529;SDS011;24301;54.332;48.386;2023-07-22T09:18:01;2.33;;;1.40;;
38529;SDS011;24301;54.332;48.386;2023-07-22T09:20:27;3.00;;;1.90;;
38529;SDS011;24301;54.332;48.386;2023-07-22T09:22:54;2.10;;;1.30;;
38529;SDS011;24301;54.332;48.386;2023-07-22T09:25:21;2.20;;;1.50;;
38529;SDS011;24301;54.332;48.386;2023-07-22T09:27:48;3.13;;;1.30;;
38529;SDS011;24301;54.332;48.386;2023-07-22T09:32:59;3.40;;;1.50;;
38529;SDS011;24301;54.332;48.386;2023-07-22T09:35:30;2.42;;;1.42;;
38529;SDS011;24301;54.332;48.386;2023-07-22T09:38:12;1.83;;;1.20;;
38529;SDS011;24301;54.332;48.386;2023-07-22T09:40:39;2.33;;;1.50;;
38529;SDS011;24301;54.332;48.386;2023-07-22T09:43:09;2.35;;;1.70;;
38529;SDS011;24301;54.332;48.386;2023-07-22T09:45:35;2.13;;;1.38;;
38529;SDS011;24301;54.332;48.386;2023-07-22T09:48:03;2.22;;;1.60;;
38529;SDS011;24301;54.332;48.386;2023-07-22T09:50:29;4.05;;;1.13;;
38529;SDS011;24301;54.332;48.386;2023-07-22T09:52:56;2.92;;;1.40;;
38529;SDS011;24301;54.332;48.386;2023-07-22T09:55:29;2.67;;;1.30;;
38529;SDS011;24301;54.332;48.386;2023-07-22T10:00:31;2.83;;;1.75;;
38529;SDS011;24301;54.332;48.386;2023-07-22T10:03:09;4.28;;;2.42;;
38529;SDS011;24301;54.332;48.386;2023-07-22T10:05:37;4.38;;;1.80;;
38529;SDS011;24301;54.332;48.386;2023-07-22T10:08:05;2.97;;;1.10;;
38529;SDS011;24301;54.332;48.386;2023-07-22T10:10:33;1.75;;;1.20;;
38529;SDS011;24301;54.332;48.386;2023-07-22T10:13:08;2.33;;;1.38;;
38529;SDS011;24301;54.332;48.386;2023-07-22T10:15:36;1.50;;;1.00;;
38529;SDS011;24301;54.332;48.386;2023-07-22T10:18:02;2.22;;;1.10;;
38529;SDS011;24301;54.332;48.386;2023-07-22T10:20:30;2.72;;;1.30;;
38529;SDS011;24301;54.332;48.386;2023-07-22T10:23:00;1.73;;;1.15;;
38529;SDS011;24301;54.332;48.386;2023-07-22T10:25:27;2.67;;;1.52;;
38529;SDS011;24301;54.332;48.386;2023-07-22T10:27:53;4.05;;;1.27;;
38529;SDS011;24301;54.332;48.386;2023-07-22T10:30:19;2.90;;;1.40;;
38529;SDS011;24301;54.332;48.386;2023-07-22T10:32:49;2.17;;;1.40;;
38529;SDS011;24301;54.332;48.386;2023-07-22T10:37:55;1.65;;;1.25;;
38529;SDS011;24301;54.332;48.386;2023-07-22T10:40:44;1.65;;;1.38;;
38529;SDS011;24301;54.332;48.386;2023-07-22T10:43:11;3.15;;;2.00;;
38529;SDS011;24301;54.332;48.386;2023-07-22T10:45:41;3.97;;;2.60;;
38529;SDS011;24301;54.332;48.386;2023-07-22T10:48:09;3.50;;;1.80;;
38529;SDS011;24301;54.332;48.386;2023-07-22T10:50:39;4.20;;;1.77;;
38529;SDS011;24301;54.332;48.386;2023-07-22T10:53:12;2.88;;;1.70;;
38529;SDS011;24301;54.332;48.386;2023-07-22T11:04:05;5.60;;;3.30;;
38529;SDS011;24301;54.332;48.386;2023-07-22T11:06:34;4.32;;;2.92;;
38529;SDS011;24301;54.332;48.386;2023-07-22T11:09:00;4.50;;;3.20;;
38529;SDS011;24301;54.332;48.386;2023-07-22T11:14:13;3.95;;;2.25;;
38529;SDS011;24301;54.332;48.386;2023-07-22T11:16:41;6.75;;;2.30;;
38529;SDS011;24301;54.332;48.386;2023-07-22T11:19:08;4.22;;;2.53;;
38529;SDS011;24301;54.332;48.386;2023-07-22T11:21:34;5.57;;;3.28;;
38529;SDS011;24301;54.332;48.386;2023-07-22T11:24:00;7.65;;;4.53;;
38529;SDS011;24301;54.332;48.386;2023-07-22T11:26:28;13.00;;;7.25;;
38529;SDS011;24301;54.332;48.386;2023-07-22T11:28:54;10.80;;;6.35;;
38529;SDS011;24301;54.332;48.386;2023-07-22T11:31:19;12.65;;;6.35;;
38529;SDS011;24301;54.332;48.386;2023-07-22T11:33:45;8.02;;;3.95;;
38529;SDS011;24301;54.332;48.386;2023-07-22T11:36:13;3.42;;;2.38;;
38529;SDS011;24301;54.332;48.386;2023-07-22T11:38:39;6.53;;;4.00;;
38529;SDS011;24301;54.332;48.386;2023-07-22T11:41:05;5.85;;;3.10;;
38529;SDS011;24301;54.332;48.386;2023-07-22T11:43:32;8.75;;;5.68;;
38529;SDS011;24301;54.332;48.386;2023-07-22T11:45:58;9.75;;;4.07;;
38529;SDS011;24301;54.332;48.386;2023-07-22T11:48:24;10.93;;;7.25;;
38529;SDS011;24301;54.332;48.386;2023-07-22T11:50:50;14.60;;;9.38;;
38529;SDS011;24301;54.332;48.386;2023-07-22T11:53:17;8.52;;;6.93;;
38529;SDS011;24301;54.332;48.386;2023-07-22T11:55:43;9.75;;;7.65;;
38529;SDS011;24301;54.332;48.386;2023-07-22T11:58:12;7.07;;;4.65;;
38529;SDS011;24301;54.332;48.386;2023-07-22T12:00:41;5.95;;;4.20;;
38529;SDS011;24301;54.332;48.386;2023-07-22T12:03:09;4.50;;;2.90;;
38529;SDS011;24301;54.332;48.386;2023-07-22T12:05:35;7.55;;;4.68;;
38529;SDS011;24301;54.332;48.386;2023-07-22T12:08:03;5.60;;;3.15;;
38529;SDS011;24301;54.332;48.386;2023-07-22T12:10:29;6.72;;;4.55;;
38529;SDS011;24301;54.332;48.386;2023-07-22T12:12:55;4.95;;;2.80;;
38529;SDS011;24301;54.332;48.386;2023-07-22T12:15:26;5.75;;;3.03;;
38529;SDS011;24301;54.332;48.386;2023-07-22T12:20:19;6.95;;;3.28;;
38529;SDS011;24301;54.332;48.386;2023-07-22T12:22:54;9.95;;;3.90;;
38529;SDS011;24301;54.332;48.386;2023-07-22T12:25:23;5.47;;;2.90;;
38529;SDS011;24301;54.332;48.386;2023-07-22T12:27:49;8.38;;;3.53;;
38529;SDS011;24301;54.332;48.386;2023-07-22T12:30:19;3.90;;;1.67;;
38529;SDS011;24301;54.332;48.386;2023-07-22T12:32:46;8.38;;;1.88;;
38529;SDS011;24301;54.332;48.386;2023-07-22T12:35:12;5.60;;;2.95;;
38529;SDS011;24301;54.332;48.386;2023-07-22T12:37:39;3.28;;;2.38;;
38529;SDS011;24301;54.332;48.386;2023-07-22T12:40:05;5.97;;;3.25;;
38529;SDS011;24301;54.332;48.386;2023-07-22T12:42:34;3.72;;;2.20;;
38529;SDS011;24301;54.332;48.386;2023-07-22T12:45:00;5.43;;;3.15;;
38529;SDS011;24301;54.332;48.386;2023-07-22T12:47:26;5.90;;;2.85;;
38529;SDS011;24301;54.332;48.386;2023-07-22T12:49:52;4.15;;;2.63;;
38529;SDS011;24301;54.332;48.386;2023-07-22T12:52:18;3.03;;;1.98;;
38529;SDS011;24301;54.332;48.386;2023-07-22T12:54:44;4.10;;;2.30;;
38529;SDS011;24301;54.332;48.386;2023-07-22T12:57:10;5.13;;;2.50;;
38529;SDS011;24301;54.332;48.386;2023-07-22T12:59:36;4.40;;;3.15;;
38529;SDS011;24301;54.332;48.386;2023-07-22T13:02:02;8.95;;;4.80;;
38529;SDS011;24301;54.332;48.386;2023-07-22T13:04:28;4.82;;;2.63;;
38529;SDS011;24301;54.332;48.386;2023-07-22T13:06:54;5.65;;;3.13;;
38529;SDS011;24301;54.332;48.386;2023-07-22T13:09:20;6.35;;;3.60;;
38529;SDS011;24301;54.332;48.386;2023-07-22T13:11:46;4.63;;;2.42;;
38529;SDS011;24301;54.332;48.386;2023-07-22T13:14:12;4.78;;;2.28;;
38529;SDS011;24301;54.332;48.386;2023-07-22T13:16:37;5.35;;;3.15;;
38529;SDS011;24301;54.332;48.386;2023-07-22T13:19:06;5.38;;;2.80;;
38529;SDS011;24301;54.332;48.386;2023-07-22T13:21:32;7.43;;;2.22;;
38529;SDS011;24301;54.332;48.386;2023-07-22T13:23:58;4.03;;;2.25;;
38529;SDS011;24301;54.332;48.386;2023-07-22T13:26:23;5.00;;;2.88;;
38529;SDS011;24301;54.332;48.386;2023-07-22T13:28:49;9.85;;;4.80;;
38529;SDS011;24301;54.332;48.386;2023-07-22T13:31:15;5.85;;;2.85;;
38529;SDS011;24301;54.332;48.386;2023-07-22T13:33:41;4.07;;;2.20;;
38529;SDS011;24301;54.332;48.386;2023-07-22T13:36:10;6.40;;;3.35;;
38529;SDS011;24301;54.332;48.386;2023-07-22T13:38:36;9.27;;;2.58;;
38529;SDS011;24301;54.332;48.386;2023-07-22T13:41:02;7.53;;;2.58;;
38529;SDS011;24301;54.332;48.386;2023-07-22T13:43:30;7.38;;;3.22;;
38529;SDS011;24301;54.332;48.386;2023-07-22T13:46:02;4.57;;;2.40;;
38529;SDS011;24301;54.332;48.386;2023-07-22T13:48:28;7.70;;;2.40;;
38529;SDS011;24301;54.332;48.386;2023-07-22T13:50:54;6.63;;;3.72;;
38529;SDS011;24301;54.332;48.386;2023-07-22T13:53:20;6.43;;;3.40;;
38529;SDS011;24301;54.332;48.386;2023-07-22T13:55:46;6.88;;;3.03;;
38529;SDS011;24301;54.332;48.386;2023-07-22T13:58:11;6.00;;;2.80;;
38529;SDS011;24301;54.332;48.386;2023-07-22T14:00:37;3.67;;;2.22;;
38529;SDS011;24301;54.332;48.386;2023-07-22T14:03:05;4.03;;;2.90;;
38529;SDS011;24301;54.332;48.386;2023-07-22T14:05:31;6.32;;;3.15;;
38529;SDS011;24301;54.332;48.386;2023-07-22T14:07:56;3.80;;;2.92;;
38529;SDS011;24301;54.332;48.386;2023-07-22T14:10:22;5.20;;;3.13;;
38529;SDS011;24301;54.332;48.386;2023-07-22T14:12:48;3.42;;;2.70;;
38529;SDS011;24301;54.332;48.386;2023-07-22T14:15:14;5.57;;;3.85;;
38529;SDS011;24301;54.332;48.386;2023-07-22T14:17:40;4.85;;;3.45;;
38529;SDS011;24301;54.332;48.386;2023-07-22T14:20:06;5.43;;;3.63;;
38529;SDS011;24301;54.332;48.386;2023-07-22T14:22:32;12.57;;;9.05;;
38529;SDS011;24301;54.332;48.386;2023-07-22T14:24:58;7.65;;;5.50;;
38529;SDS011;24301;54.332;48.386;2023-07-22T14:27:24;7.93;;;5.93;;
38529;SDS011;24301;54.332;48.386;2023-07-22T14:29:50;7.18;;;5.10;;
38529;SDS011;24301;54.332;48.386;2023-07-22T14:32:16;8.85;;;7.05;;
38529;SDS011;24301;54.332;48.386;2023-07-22T14:34:42;7.60;;;4.68;;
38529;SDS011;24301;54.332;48.386;2023-07-22T14:37:07;9.32;;;5.57;;
38529;SDS011;24301;54.332;48.386;2023-07-22T14:39:33;6.07;;;3.50;;
38529;SDS011;24301;54.332;48.386;2023-07-22T14:41:59;4.35;;;2.90;;
38529;SDS011;24301;54.332;48.386;2023-07-22T14:44:25;5.40;;;3.60;;
38529;SDS011;24301;54.332;48.386;2023-07-22T14:46:51;4.70;;;3.47;;
38529;SDS011;24301;54.332;48.386;2023-07-22T14:49:17;9.82;;;5.88;;
38529;SDS011;24301;54.332;48.386;2023-07-22T14:51:42;7.93;;;5.18;;
38529;SDS011;24301;54.332;48.386;2023-07-22T14:54:08;9.52;;;7.10;;
38529;SDS011;24301;54.332;48.386;2023-07-22T14:56:34;7.53;;;5.18;;
38529;SDS011;24301;54.332;48.386;2023-07-22T14:59:00;9.48;;;6.18;;